createdAt,value
2018-09-10T00:03:56.254Z,63.07
2018-09-10T00:07:59.993Z,63.90
2018-09-10T00:12:03.962Z,63.68
2018-09-10T00:16:07.877Z,63.77
2018-09-10T00:20:12.530Z,63.77
2018-09-10T00:24:16.102Z,63.91
2018-09-10T00:28:19.714Z,64.59
2018-09-10T00:32:23.385Z,64.15
2018-09-10T00:36:26.950Z,64.05
2018-09-10T00:40:30.782Z,64.00
2018-09-10T00:44:34.270Z,64.37
2018-09-10T00:48:37.912Z,64.88
2018-09-10T00:52:41.439Z,64.21
2018-09-10T00:56:45.130Z,64.49
2018-09-10T01:00:48.810Z,64.54
2018-09-10T01:04:52.375Z,64.62
2018-09-10T01:08:57.234Z,64.94
2018-09-10T01:13:00.834Z,65.12
2018-09-10T01:17:04.457Z,65.47
2018-09-10T01:21:07.960Z,64.88
2018-09-10T01:25:11.573Z,64.92
2018-09-10T01:29:15.407Z,65.01
2018-09-10T01:33:24.263Z,65.19
2018-09-10T01:37:27.891Z,64.96
2018-09-10T01:41:31.519Z,65.42
2018-09-10T01:45:35.069Z,65.13
2018-09-10T01:49:38.836Z,64.78
2018-09-10T01:53:42.381Z,64.79
2018-09-10T01:57:46.095Z,64.82
2018-09-10T02:01:49.700Z,64.79
2018-09-10T02:05:53.479Z,64.96
2018-09-10T02:09:57.169Z,64.89
2018-09-10T02:14:00.822Z,65.04
2018-09-10T02:18:04.348Z,64.82
2018-09-10T02:22:08.012Z,64.99
2018-09-10T02:26:11.715Z,64.87
2018-09-10T02:30:15.380Z,65.59
2018-09-10T02:34:18.977Z,65.63
2018-09-10T02:38:22.622Z,66.28
2018-09-10T02:42:26.227Z,65.89
2018-09-10T02:46:29.902Z,65.69
2018-09-10T02:50:33.440Z,65.59
2018-09-10T02:54:37.103Z,65.71
2018-09-10T02:58:40.780Z,65.76
2018-09-10T03:02:44.394Z,65.96
2018-09-10T03:06:48.135Z,66.04
2018-09-10T03:10:51.663Z,66.01
2018-09-10T03:14:57.222Z,66.37
2018-09-10T03:19:00.903Z,66.28
2018-09-10T03:23:04.637Z,66.31
2018-09-10T03:27:08.310Z,66.23
2018-09-10T03:31:11.814Z,66.20
2018-09-10T03:35:15.392Z,66.25
2018-09-10T03:39:18.912Z,65.99
2018-09-10T03:43:22.448Z,66.18
2018-09-10T03:47:26.208Z,66.13
2018-09-10T03:51:29.929Z,66.26
2018-09-10T03:55:33.471Z,66.11
2018-09-10T03:59:37.357Z,66.37
2018-09-10T04:03:40.922Z,66.37
2018-09-10T04:07:44.622Z,66.37
2018-09-10T04:11:48.458Z,66.40
2018-09-10T04:15:52.075Z,66.25
2018-09-10T04:20:00.735Z,66.54
2018-09-10T04:24:04.299Z,66.46
2018-09-10T04:28:08.011Z,66.54
2018-09-10T04:32:11.593Z,66.69
2018-09-10T04:36:15.366Z,66.73
2018-09-10T04:40:19.186Z,66.31
2018-09-10T04:44:22.839Z,66.86
2018-09-10T04:48:26.696Z,67.08
2018-09-10T04:52:30.215Z,67.22
2018-09-10T04:56:33.748Z,66.71
2018-09-10T05:00:37.231Z,66.87
2018-09-10T05:04:41.068Z,67.04
2018-09-10T05:08:44.746Z,66.90
2018-09-10T05:12:48.415Z,66.92
2018-09-10T05:16:51.981Z,67.28
2018-09-10T05:20:55.483Z,67.04
2018-09-10T05:24:59.273Z,67.23
2018-09-10T05:29:02.978Z,67.12
2018-09-10T05:33:07.637Z,67.17
2018-09-10T05:37:11.243Z,67.17
2018-09-10T05:41:14.997Z,67.24
2018-09-10T05:45:18.617Z,67.37
2018-09-10T05:49:22.359Z,67.50
2018-09-10T05:53:25.859Z,67.68
2018-09-10T05:57:29.600Z,67.61
2018-09-10T06:01:33.046Z,67.98
2018-09-10T06:05:37.519Z,67.84
2018-09-10T06:09:41.188Z,68.05
2018-09-10T06:13:45.875Z,68.25
2018-09-10T06:17:49.416Z,67.80
2018-09-10T06:21:52.943Z,68.18
2018-09-10T06:25:56.399Z,68.38
2018-09-10T06:29:59.899Z,68.17
2018-09-10T06:34:03.547Z,68.04
2018-09-10T06:38:07.430Z,67.15
2018-09-10T06:42:10.879Z,66.29
2018-09-10T06:46:14.796Z,66.32
2018-09-10T06:50:18.675Z,66.16
2018-09-10T06:54:22.334Z,65.84
2018-09-10T06:58:26.021Z,66.17
2018-09-10T07:02:29.659Z,65.38
2018-09-10T07:06:33.304Z,65.06
2018-09-10T07:10:37.022Z,64.01
2018-09-10T07:14:40.589Z,62.79
2018-09-10T07:18:44.417Z,62.76
2018-09-10T07:22:48.474Z,61.86
2018-09-10T07:26:52.027Z,60.25
2018-09-10T07:30:55.788Z,60.70
2018-09-10T07:34:59.468Z,60.55
2018-09-10T07:39:03.080Z,61.13
2018-09-10T07:43:06.744Z,60.16
2018-09-10T07:47:10.408Z,60.49
2018-09-10T07:51:13.928Z,59.98
2018-09-10T07:55:17.732Z,60.18
2018-09-10T07:59:21.266Z,59.89
2018-09-10T08:03:24.799Z,58.76
2018-09-10T08:07:28.455Z,57.62
2018-09-10T08:11:33.244Z,55.91
2018-09-10T08:15:36.839Z,56.72
2018-09-10T08:19:40.627Z,56.78
2018-09-10T08:23:44.118Z,56.28
2018-09-10T08:27:47.786Z,56.44
2018-09-10T08:31:51.252Z,55.36
2018-09-10T08:35:55.330Z,55.24
2018-09-10T08:39:58.866Z,54.68
2018-09-10T08:44:02.661Z,53.91
2018-09-10T08:48:06.447Z,52.21
2018-09-10T08:52:09.941Z,53.79
2018-09-10T08:56:13.701Z,53.53
2018-09-10T09:00:17.211Z,52.74
2018-09-10T09:04:21.031Z,51.41
2018-09-10T09:08:25.771Z,50.98
2018-09-10T09:12:29.250Z,51.95
2018-09-10T09:16:32.867Z,53.07
2018-09-10T09:20:36.649Z,51.38
2018-09-10T09:24:40.184Z,52.33
2018-09-10T09:28:43.855Z,52.05
2018-09-10T09:32:47.801Z,51.13
2018-09-10T09:36:56.484Z,51.03
2018-09-10T09:41:05.335Z,51.06
2018-09-10T09:45:14.198Z,50.61
2018-09-10T09:49:18.093Z,50.73
2018-09-10T09:53:22.017Z,50.89
2018-09-10T09:57:25.568Z,49.17
2018-09-10T10:01:34.409Z,49.69
2018-09-10T10:05:37.921Z,50.09
2018-09-10T10:09:41.747Z,49.32
2018-09-10T10:13:45.352Z,49.26
2018-09-10T10:17:48.979Z,48.04
2018-09-10T10:21:52.778Z,49.15
2018-09-10T10:25:56.356Z,48.36
2018-09-10T10:30:00.024Z,46.04
2018-09-10T10:34:04.098Z,46.10
2018-09-10T10:38:07.866Z,46.88
2018-09-10T10:42:12.434Z,44.25
2018-09-10T10:46:16.183Z,44.84
2018-09-10T10:50:19.639Z,45.77
2018-09-10T10:54:23.139Z,44.43
2018-09-10T10:58:26.744Z,43.58
2018-09-10T11:02:30.574Z,43.82
2018-09-10T11:06:35.296Z,42.36
2018-09-10T11:10:38.927Z,42.81
2018-09-10T11:14:42.475Z,41.74
2018-09-10T11:18:46.084Z,40.78
2018-09-10T11:22:50.072Z,42.33
2018-09-10T11:26:53.591Z,42.32
2018-09-10T11:30:57.254Z,41.97
2018-09-10T11:35:00.883Z,42.28
2018-09-10T11:39:05.751Z,40.99
2018-09-10T11:43:09.311Z,41.66
2018-09-10T11:47:12.840Z,41.08
2018-09-10T11:51:17.479Z,41.11
2018-09-10T11:55:21.255Z,41.75
2018-09-10T11:59:24.789Z,41.19
2018-09-10T12:03:28.699Z,41.62
2018-09-10T12:07:32.245Z,41.40
2018-09-10T12:11:35.972Z,41.39
2018-09-10T12:15:39.481Z,39.37
2018-09-10T12:19:43.083Z,40.57
2018-09-10T12:23:46.539Z,39.12
2018-09-10T12:27:50.047Z,40.18
2018-09-10T12:31:53.707Z,39.20
2018-09-10T12:35:58.189Z,39.28
2018-09-10T12:40:01.787Z,40.00
2018-09-10T12:44:05.826Z,39.87
2018-09-10T12:48:10.543Z,40.18
2018-09-10T12:52:13.996Z,40.22
2018-09-10T12:56:17.674Z,39.85
2018-09-10T13:00:21.187Z,38.87
2018-09-10T13:04:24.976Z,39.15
2018-09-10T13:08:29.667Z,39.80
2018-09-10T13:12:33.164Z,38.98
2018-09-10T13:16:36.759Z,39.29
2018-09-10T13:20:40.679Z,39.93
2018-09-10T13:24:44.344Z,38.65
2018-09-10T13:28:48.307Z,39.21
2018-09-10T13:32:51.811Z,39.25
2018-09-10T13:36:55.455Z,39.64
2018-09-10T13:40:59.359Z,39.44
2018-09-10T13:45:03.841Z,38.92
2018-09-10T13:49:08.430Z,39.67
2018-09-10T13:53:12.014Z,39.77
2018-09-10T13:57:15.655Z,38.66
2018-09-10T14:01:19.366Z,37.66
2018-09-10T14:05:23.221Z,39.00
2018-09-10T14:09:26.898Z,38.50
2018-09-10T14:13:30.743Z,38.74
2018-09-10T14:17:34.391Z,39.95
2018-09-10T14:21:38.082Z,40.23
2018-09-10T14:25:41.694Z,39.98
2018-09-10T14:29:45.337Z,39.52
2018-09-10T14:33:48.991Z,40.32
2018-09-10T14:37:52.555Z,39.59
2018-09-10T14:41:56.226Z,40.19
2018-09-10T14:45:59.974Z,39.09
2018-09-10T14:50:04.293Z,39.48
2018-09-10T14:54:08.079Z,40.19
2018-09-10T14:58:11.698Z,40.07
2018-09-10T15:02:15.379Z,40.61
2018-09-10T15:06:19.095Z,39.90
2018-09-10T15:10:23.071Z,40.45
2018-09-10T15:14:26.831Z,39.58
2018-09-10T15:18:30.495Z,39.44
2018-09-10T15:22:33.968Z,40.84
2018-09-10T15:26:37.613Z,40.43
2018-09-10T15:30:41.493Z,40.93
2018-09-10T15:34:46.271Z,40.61
2018-09-10T15:38:50.178Z,41.33
2018-09-10T15:42:53.786Z,42.04
2018-09-10T15:46:57.469Z,41.86
2018-09-10T15:51:01.642Z,42.40
2018-09-10T15:55:05.342Z,42.98
2018-09-10T15:59:09.537Z,43.91
2018-09-10T16:03:13.445Z,43.37
2018-09-10T16:07:17.108Z,43.01
2018-09-10T16:11:24.218Z,43.79
2018-09-10T16:15:29.704Z,43.59
2018-09-10T16:19:33.356Z,42.91
2018-09-10T16:23:36.932Z,43.28
2018-09-10T16:27:40.580Z,42.83
2018-09-10T16:31:44.263Z,42.54
2018-09-10T16:35:48.235Z,43.43
2018-09-10T16:39:51.951Z,42.97
2018-09-10T16:43:55.630Z,43.96
2018-09-10T16:47:59.131Z,43.25
2018-09-10T16:52:03.032Z,41.93
2018-09-10T16:56:06.606Z,41.90
2018-09-10T17:00:10.257Z,40.73
2018-09-10T17:04:13.863Z,40.85
2018-09-10T17:08:17.583Z,41.55
2018-09-10T17:12:21.136Z,41.19
2018-09-10T17:16:26.933Z,41.99
2018-09-10T17:20:30.523Z,42.24
2018-09-10T17:24:34.525Z,42.44
2018-09-10T17:28:38.424Z,42.51
2018-09-10T17:32:43.395Z,41.86
2018-09-10T17:36:47.015Z,41.88
2018-09-10T17:40:50.791Z,42.11
2018-09-10T17:44:54.495Z,42.88
2018-09-10T17:48:59.474Z,43.25
2018-09-10T17:53:03.634Z,43.26
2018-09-10T17:57:07.342Z,43.31
2018-09-10T18:01:11.055Z,43.69
2018-09-10T18:05:14.744Z,43.25
2018-09-10T18:09:18.610Z,44.00
2018-09-10T18:17:49.925Z,43.82
2018-09-10T18:21:53.585Z,43.46
2018-09-10T18:25:57.325Z,44.01
2018-09-10T18:30:01.164Z,44.23
2018-09-10T18:34:06.751Z,44.71
2018-09-10T18:38:10.551Z,44.25
2018-09-10T18:42:15.103Z,44.67
2018-09-10T18:46:18.829Z,44.61
2018-09-10T18:50:22.521Z,44.23
2018-09-10T18:54:26.144Z,44.31
2018-09-10T18:58:29.839Z,45.15
2018-09-10T19:02:34.359Z,45.15
2018-09-10T19:06:38.468Z,44.58
2018-09-10T19:10:42.507Z,44.92
2018-09-10T19:14:48.062Z,45.38
2018-09-10T19:18:51.813Z,45.72
2018-09-10T19:22:55.427Z,45.36
2018-09-10T19:26:59.152Z,45.75
2018-09-10T19:31:03.185Z,45.80
2018-09-10T19:35:06.707Z,46.69
2018-09-10T19:39:11.872Z,46.70
2018-09-10T19:43:15.646Z,46.37
2018-09-10T19:47:19.312Z,46.89
2018-09-10T19:51:23.207Z,47.08
2018-09-10T19:55:27.104Z,46.94
2018-09-10T19:59:31.104Z,47.07
2018-09-10T20:03:34.781Z,46.74
2018-09-10T20:07:38.440Z,47.19
2018-09-10T20:11:42.140Z,47.34
2018-09-10T20:15:45.895Z,46.90
2018-09-10T20:19:49.480Z,47.03
2018-09-10T20:23:53.330Z,47.23
2018-09-10T20:27:56.908Z,47.29
2018-09-10T20:32:00.741Z,48.07
2018-09-10T20:36:04.412Z,47.59
2018-09-10T20:40:08.304Z,47.63
2018-09-10T20:44:11.885Z,47.91
2018-09-10T20:48:15.512Z,48.67
2018-09-10T20:52:19.311Z,48.21
2018-09-10T20:56:22.972Z,48.84
2018-09-10T21:00:26.719Z,48.33
2018-09-10T21:04:30.459Z,49.19
2018-09-10T21:08:34.111Z,49.07
2018-09-10T21:12:37.904Z,49.16
2018-09-10T21:16:41.824Z,48.81
2018-09-10T21:20:45.366Z,49.47
2018-09-10T21:24:48.947Z,49.45
2018-09-10T21:28:52.640Z,49.00
2018-09-10T21:32:56.209Z,48.97
2018-09-10T21:36:59.732Z,49.03
2018-09-10T21:41:03.228Z,49.09
2018-09-10T21:45:06.863Z,49.32
2018-09-10T21:49:10.543Z,50.00
2018-09-10T21:53:14.194Z,49.44
2018-09-10T21:57:18.142Z,50.32
2018-09-10T22:01:21.644Z,50.43
2018-09-10T22:05:25.190Z,49.70
2018-09-10T22:09:28.926Z,50.18
2018-09-10T22:13:32.508Z,50.03
2018-09-10T22:17:36.171Z,50.06
2018-09-10T22:21:40.022Z,49.69
2018-09-10T22:25:43.550Z,49.82
2018-09-10T22:29:47.146Z,49.95
2018-09-10T22:33:50.755Z,50.13
2018-09-10T22:37:54.829Z,51.08
2018-09-10T22:41:59.416Z,50.37
2018-09-10T22:46:03.115Z,50.51
2018-09-10T22:50:07.242Z,51.24
2018-09-10T22:54:11.052Z,50.86
2018-09-10T22:58:14.689Z,50.60
2018-09-10T23:02:18.287Z,50.91
2018-09-10T23:06:21.903Z,51.75
2018-09-10T23:10:25.586Z,51.31
2018-09-10T23:14:29.223Z,51.07
2018-09-10T23:18:32.813Z,51.16
2018-09-10T23:22:36.477Z,52.01
2018-09-10T23:26:41.125Z,52.18
2018-09-10T23:30:44.829Z,51.39
2018-09-10T23:34:48.510Z,51.96
2018-09-10T23:38:52.092Z,51.62
2018-09-10T23:42:55.813Z,51.62
2018-09-10T23:46:59.280Z,52.20
2018-09-10T23:51:03.094Z,52.65
2018-09-10T23:55:06.925Z,52.68
2018-09-10T23:59:10.470Z,52.58
